Aérodrome :
LOGIN :

S'inscrire | Disclaimer

   EN    FR    IT 

 










Légende :    VFR   VFR Marginal   IFR   IFR Intensif   IFR Très Intensif
Visi : 
Plafond : 
>= 8 km
>= 3000ft
5 à 8 km
1000 à 3000 ft
1500m à 5 km
500 à 1000 ft
800 à 1500m
200 à 500 ft
< 800m
< 200 ft
Symboles :   Orages  Brouillard  Fortes neiges  Fortes précipitations  Vent > 20 kt
SIGMETs :   Divers  Orages  Givrage  Turbulence  Onde Orograph.  Cendres Volcan.







- Altitude de l'aérodrome : 423 ft
- Code IATA : PIS
- Voir les cartes d'approche


LFBI - Poitiers

DERNIER METAR :
  • 150130Z AUTO 16004KT 5000 BR NSC M02/M03 Q1022 NOSIG

METARs EXPIRÉS :
  • 150100Z AUTO 14004KT 110V170 5000 BR FEW006 M02/M03 Q1022 NOSIG
  • 150030Z AUTO 14005KT 090V180 5000 BR BKN006 OVC052 M02/M03 Q1022 BECMG NSC
  • 150000Z AUTO 14004KT 110V180 5000 BR FEW006 OVC052 M02/M03 Q1022 NOSIG
  • 142330Z AUTO 16004KT 5000 BR NSC M02/M03 Q1023 NOSIG
  • 142300Z AUTO 16004KT 5000 BR NSC M03/M03 Q1023 NOSIG

TAF AMD TAF LFBI
Valide du 15 à 00h jusqu'au 16 à 00h UTC


150045Z 1500/1524 16005KT 4000 BR NSC
TEMPO 1500/1504 FEW005
BECMG 1504/1506 9999 NSW BKN020
PROB30
TEMPO 1506/1508 -FZRA BKN015 OVC030
TEMPO 1508/1520 2000 RA OVC004
TEMPO 1515/1520 18015G25KT
BECMG 1520/1522 20010KT 3000 BR OVC005
Pas de NOTAMs connus pour ce terrain.



MET'MAP, la Météo Aéronautique d'un coup d'oeil ! - Copyright ORBIFLY Décembre 2007 - Disclaimer

ORBIFLY MET'MAP TEAM :

Programmation & Développement : Alexandra Zaïnal
Conception & Développement : Baudouin d'Aumeries
Co-Programmation & Développement : Marc-Olivier Méhu
Soutien technique & logistique : Manuel Goepfert

Contact : metmap@orbifly.com




SOURCES & CREDITS :

   NOAA